sensor_id;sensor_type;location;lat;lon;timestamp;temperature;humidity
20091;DHT22;10205;49.678;6.560;2022-12-07T00:01:08;8.50;72.30
20091;DHT22;10205;49.678;6.560;2022-12-07T00:03:38;8.50;72.60
20091;DHT22;10205;49.678;6.560;2022-12-07T00:06:07;8.50;72.50
20091;DHT22;10205;49.678;6.560;2022-12-07T00:08:37;8.50;72.70
20091;DHT22;10205;49.678;6.560;2022-12-07T00:11:06;8.50;72.70
20091;DHT22;10205;49.678;6.560;2022-12-07T00:13:35;8.50;72.60
20091;DHT22;10205;49.678;6.560;2022-12-07T00:16:05;8.60;72.70
20091;DHT22;10205;49.678;6.560;2022-12-07T00:18:36;8.60;72.80
20091;DHT22;10205;49.678;6.560;2022-12-07T00:21:05;8.60;73.60
20091;DHT22;10205;49.678;6.560;2022-12-07T00:23:35;8.60;72.80
20091;DHT22;10205;49.678;6.560;2022-12-07T00:26:04;8.60;72.60
20091;DHT22;10205;49.678;6.560;2022-12-07T00:28:32;8.60;72.40
20091;DHT22;10205;49.678;6.560;2022-12-07T00:31:02;8.60;72.10
20091;DHT22;10205;49.678;6.560;2022-12-07T00:33:33;8.60;72.70
20091;DHT22;10205;49.678;6.560;2022-12-07T00:36:01;8.60;71.80
20091;DHT22;10205;49.678;6.560;2022-12-07T00:38:31;8.60;71.80
20091;DHT22;10205;49.678;6.560;2022-12-07T00:41:01;8.50;71.70
20091;DHT22;10205;49.678;6.560;2022-12-07T00:43:32;8.50;72.10
20091;DHT22;10205;49.678;6.560;2022-12-07T00:45:59;8.50;71.90
20091;DHT22;10205;49.678;6.560;2022-12-07T00:48:26;8.50;72.10
20091;DHT22;10205;49.678;6.560;2022-12-07T00:50:55;8.50;71.90
20091;DHT22;10205;49.678;6.560;2022-12-07T00:53:25;8.50;71.80
20091;DHT22;10205;49.678;6.560;2022-12-07T00:55:53;8.50;72.10
20091;DHT22;10205;49.678;6.560;2022-12-07T00:58:21;8.50;72.30
20091;DHT22;10205;49.678;6.560;2022-12-07T01:00:49;8.50;72.30
20091;DHT22;10205;49.678;6.560;2022-12-07T01:03:16;8.50;72.00
20091;DHT22;10205;49.678;6.560;2022-12-07T01:05:51;8.50;71.80
20091;DHT22;10205;49.678;6.560;2022-12-07T01:08:21;8.50;71.80
20091;DHT22;10205;49.678;6.560;2022-12-07T01:10:49;8.40;71.70
20091;DHT22;10205;49.678;6.560;2022-12-07T01:13:24;8.40;71.80
20091;DHT22;10205;49.678;6.560;2022-12-07T01:15:57;8.40;71.80
20091;DHT22;10205;49.678;6.560;2022-12-07T01:18:26;8.40;71.80
20091;DHT22;10205;49.678;6.560;2022-12-07T01:21:01;8.40;71.90
20091;DHT22;10205;49.678;6.560;2022-12-07T01:23:34;8.40;72.10
20091;DHT22;10205;49.678;6.560;2022-12-07T01:26:04;8.30;72.00
20091;DHT22;10205;49.678;6.560;2022-12-07T01:28:33;8.30;71.90
20091;DHT22;10205;49.678;6.560;2022-12-07T01:31:03;8.30;71.90
20091;DHT22;10205;49.678;6.560;2022-12-07T01:33:32;8.30;71.90
20091;DHT22;10205;49.678;6.560;2022-12-07T01:36:02;8.30;71.90
20091;DHT22;10205;49.678;6.560;2022-12-07T01:38:32;8.30;72.10
20091;DHT22;10205;49.678;6.560;2022-12-07T01:41:01;8.30;72.10
20091;DHT22;10205;49.678;6.560;2022-12-07T01:43:30;8.30;72.20
20091;DHT22;10205;49.678;6.560;2022-12-07T01:46:02;8.30;72.30
20091;DHT22;10205;49.678;6.560;2022-12-07T01:48:33;8.30;72.40
20091;DHT22;10205;49.678;6.560;2022-12-07T01:51:06;8.30;72.50
20091;DHT22;10205;49.678;6.560;2022-12-07T01:53:41;8.30;72.20
20091;DHT22;10205;49.678;6.560;2022-12-07T01:56:20;8.30;72.10
20091;DHT22;10205;49.678;6.560;2022-12-07T01:58:51;8.30;71.80
20091;DHT22;10205;49.678;6.560;2022-12-07T02:01:20;8.30;71.80
20091;DHT22;10205;49.678;6.560;2022-12-07T02:03:48;8.30;72.00
20091;DHT22;10205;49.678;6.560;2022-12-07T02:06:19;8.30;72.30
20091;DHT22;10205;49.678;6.560;2022-12-07T02:08:50;8.30;72.60
20091;DHT22;10205;49.678;6.560;2022-12-07T02:11:19;8.30;72.80
20091;DHT22;10205;49.678;6.560;2022-12-07T02:13:47;8.30;72.70
20091;DHT22;10205;49.678;6.560;2022-12-07T02:16:29;8.40;72.70
20091;DHT22;10205;49.678;6.560;2022-12-07T02:22:41;8.30;72.80
20091;DHT22;10205;49.678;6.560;2022-12-07T02:25:45;8.40;72.80
20091;DHT22;10205;49.678;6.560;2022-12-07T02:28:27;8.40;72.50
20091;DHT22;10205;49.678;6.560;2022-12-07T02:31:03;8.40;72.30
20091;DHT22;10205;49.678;6.560;2022-12-07T02:33:38;8.40;72.10
20091;DHT22;10205;49.678;6.560;2022-12-07T02:36:13;8.40;71.80
20091;DHT22;10205;49.678;6.560;2022-12-07T02:38:50;8.30;71.50
20091;DHT22;10205;49.678;6.560;2022-12-07T02:41:25;8.30;71.40
20091;DHT22;10205;49.678;6.560;2022-12-07T02:43:58;8.30;71.50
20091;DHT22;10205;49.678;6.560;2022-12-07T02:46:32;8.30;71.80
20091;DHT22;10205;49.678;6.560;2022-12-07T02:49:03;8.30;71.90
20091;DHT22;10205;49.678;6.560;2022-12-07T02:51:32;8.30;72.10
20091;DHT22;10205;49.678;6.560;2022-12-07T02:54:01;8.30;72.30
20091;DHT22;10205;49.678;6.560;2022-12-07T02:56:43;8.30;72.20
20091;DHT22;10205;49.678;6.560;2022-12-07T02:59:20;8.20;72.10
20091;DHT22;10205;49.678;6.560;2022-12-07T03:02:06;8.20;71.90
20091;DHT22;10205;49.678;6.560;2022-12-07T03:04:46;8.20;72.10
20091;DHT22;10205;49.678;6.560;2022-12-07T03:07:26;8.20;73.00
20091;DHT22;10205;49.678;6.560;2022-12-07T03:10:10;8.20;72.10
20091;DHT22;10205;49.678;6.560;2022-12-07T03:12:49;8.20;72.30
20091;DHT22;10205;49.678;6.560;2022-12-07T03:15:27;8.20;72.50
20091;DHT22;10205;49.678;6.560;2022-12-07T03:18:01;8.20;73.20
20091;DHT22;10205;49.678;6.560;2022-12-07T03:20:32;8.20;72.50
20091;DHT22;10205;49.678;6.560;2022-12-07T03:23:06;8.20;72.60
20091;DHT22;10205;49.678;6.560;2022-12-07T03:25:39;8.20;72.20
20091;DHT22;10205;49.678;6.560;2022-12-07T03:28:10;8.20;72.30
20091;DHT22;10205;49.678;6.560;2022-12-07T03:30:44;8.20;72.40
20091;DHT22;10205;49.678;6.560;2022-12-07T03:33:18;8.20;72.50
20091;DHT22;10205;49.678;6.560;2022-12-07T03:35:55;8.20;73.40
20091;DHT22;10205;49.678;6.560;2022-12-07T03:38:36;8.20;72.70
20091;DHT22;10205;49.678;6.560;2022-12-07T03:41:09;8.20;72.60
20091;DHT22;10205;49.678;6.560;2022-12-07T03:43:41;8.30;72.70
20091;DHT22;10205;49.678;6.560;2022-12-07T03:46:17;8.30;72.50
20091;DHT22;10205;49.678;6.560;2022-12-07T03:48:56;8.30;72.20
20091;DHT22;10205;49.678;6.560;2022-12-07T03:51:33;8.30;72.20
20091;DHT22;10205;49.678;6.560;2022-12-07T03:54:09;8.30;71.90
20091;DHT22;10205;49.678;6.560;2022-12-07T03:56:42;8.20;71.70
20091;DHT22;10205;49.678;6.560;2022-12-07T03:59:13;8.20;71.70
20091;DHT22;10205;49.678;6.560;2022-12-07T04:01:43;8.20;71.70
20091;DHT22;10205;49.678;6.560;2022-12-07T04:04:12;8.20;71.80
20091;DHT22;10205;49.678;6.560;2022-12-07T04:06:39;8.10;71.80
20091;DHT22;10205;49.678;6.560;2022-12-07T04:09:06;8.20;72.10
20091;DHT22;10205;49.678;6.560;2022-12-07T04:11:34;8.10;72.20
20091;DHT22;10205;49.678;6.560;2022-12-07T04:14:01;8.10;72.20
20091;DHT22;10205;49.678;6.560;2022-12-07T04:16:47;8.10;72.30
20091;DHT22;10205;49.678;6.560;2022-12-07T04:19:18;8.10;72.40
20091;DHT22;10205;49.678;6.560;2022-12-07T04:21:47;8.10;72.60
20091;DHT22;10205;49.678;6.560;2022-12-07T04:24:15;8.10;72.80
20091;DHT22;10205;49.678;6.560;2022-12-07T04:26:44;8.10;72.80
20091;DHT22;10205;49.678;6.560;2022-12-07T04:29:13;8.20;72.80
20091;DHT22;10205;49.678;6.560;2022-12-07T04:31:42;8.10;72.80
20091;DHT22;10205;49.678;6.560;2022-12-07T04:34:09;8.20;72.80
20091;DHT22;10205;49.678;6.560;2022-12-07T04:36:39;8.20;72.80
20091;DHT22;10205;49.678;6.560;2022-12-07T04:39:09;8.20;72.90
20091;DHT22;10205;49.678;6.560;2022-12-07T04:41:44;8.20;72.60
20091;DHT22;10205;49.678;6.560;2022-12-07T04:44:13;8.20;72.50
20091;DHT22;10205;49.678;6.560;2022-12-07T04:46:43;8.20;72.40
20091;DHT22;10205;49.678;6.560;2022-12-07T04:49:12;8.20;72.40
20091;DHT22;10205;49.678;6.560;2022-12-07T04:51:43;8.20;72.40
20091;DHT22;10205;49.678;6.560;2022-12-07T04:54:11;8.20;72.50
20091;DHT22;10205;49.678;6.560;2022-12-07T04:56:39;8.30;72.70
20091;DHT22;10205;49.678;6.560;2022-12-07T04:59:07;8.20;72.70
20091;DHT22;10205;49.678;6.560;2022-12-07T05:01:34;8.30;72.90
20091;DHT22;10205;49.678;6.560;2022-12-07T05:04:02;8.20;72.70
20091;DHT22;10205;49.678;6.560;2022-12-07T05:06:29;8.30;72.70
20091;DHT22;10205;49.678;6.560;2022-12-07T05:08:58;8.30;72.60
20091;DHT22;10205;49.678;6.560;2022-12-07T05:11:25;8.30;72.70
20091;DHT22;10205;49.678;6.560;2022-12-07T05:14:08;8.30;72.50
20091;DHT22;10205;49.678;6.560;2022-12-07T05:16:38;8.30;72.30
20091;DHT22;10205;49.678;6.560;2022-12-07T05:19:07;8.30;72.20
20091;DHT22;10205;49.678;6.560;2022-12-07T05:21:34;8.30;72.20
20091;DHT22;10205;49.678;6.560;2022-12-07T05:24:04;8.30;72.10
20091;DHT22;10205;49.678;6.560;2022-12-07T05:26:32;8.20;72.10
20091;DHT22;10205;49.678;6.560;2022-12-07T05:29:00;8.30;72.30
20091;DHT22;10205;49.678;6.560;2022-12-07T05:31:27;8.30;72.30
20091;DHT22;10205;49.678;6.560;2022-12-07T05:33:55;8.20;72.30
20091;DHT22;10205;49.678;6.560;2022-12-07T05:36:23;8.20;72.30
20091;DHT22;10205;49.678;6.560;2022-12-07T05:38:50;8.20;73.10
20091;DHT22;10205;49.678;6.560;2022-12-07T05:41:19;8.20;72.30
20091;DHT22;10205;49.678;6.560;2022-12-07T05:44:04;8.20;72.30
20091;DHT22;10205;49.678;6.560;2022-12-07T05:46:32;8.20;72.40
20091;DHT22;10205;49.678;6.560;2022-12-07T05:49:00;8.20;72.60
20091;DHT22;10205;49.678;6.560;2022-12-07T05:51:27;8.20;72.70
20091;DHT22;10205;49.678;6.560;2022-12-07T05:53:54;8.20;72.90
20091;DHT22;10205;49.678;6.560;2022-12-07T05:56:24;8.20;72.90
20091;DHT22;10205;49.678;6.560;2022-12-07T05:58:52;8.20;72.80
20091;DHT22;10205;49.678;6.560;2022-12-07T06:01:36;8.20;72.80
20091;DHT22;10205;49.678;6.560;2022-12-07T06:04:04;8.20;72.70
20091;DHT22;10205;49.678;6.560;2022-12-07T06:06:31;8.20;72.60
20091;DHT22;10205;49.678;6.560;2022-12-07T06:08:58;8.30;72.80
20091;DHT22;10205;49.678;6.560;2022-12-07T06:11:27;8.30;72.70
20091;DHT22;10205;49.678;6.560;2022-12-07T06:14:12;8.30;72.70
20091;DHT22;10205;49.678;6.560;2022-12-07T06:16:39;8.30;72.80
20091;DHT22;10205;49.678;6.560;2022-12-07T06:19:07;8.30;72.80
20091;DHT22;10205;49.678;6.560;2022-12-07T06:21:35;8.30;72.70
20091;DHT22;10205;49.678;6.560;2022-12-07T06:24:03;8.30;72.80
20091;DHT22;10205;49.678;6.560;2022-12-07T06:26:35;8.30;72.80
20091;DHT22;10205;49.678;6.560;2022-12-07T06:29:05;8.30;72.90
20091;DHT22;10205;49.678;6.560;2022-12-07T06:31:33;8.40;73.00
20091;DHT22;10205;49.678;6.560;2022-12-07T06:34:03;8.30;72.90
20091;DHT22;10205;49.678;6.560;2022-12-07T06:36:32;8.30;72.80
20091;DHT22;10205;49.678;6.560;2022-12-07T06:39:00;8.30;73.60
20091;DHT22;10205;49.678;6.560;2022-12-07T06:41:27;8.40;72.80
20091;DHT22;10205;49.678;6.560;2022-12-07T06:43:56;8.40;73.60
20091;DHT22;10205;49.678;6.560;2022-12-07T06:46:24;8.30;72.80
20091;DHT22;10205;49.678;6.560;2022-12-07T06:48:51;8.40;72.90
20091;DHT22;10205;49.678;6.560;2022-12-07T06:51:19;8.40;73.00
20091;DHT22;10205;49.678;6.560;2022-12-07T06:53:46;8.40;72.80
20091;DHT22;10205;49.678;6.560;2022-12-07T06:56:13;8.40;72.70
20091;DHT22;10205;49.678;6.560;2022-12-07T06:58:41;8.40;72.70
20091;DHT22;10205;49.678;6.560;2022-12-07T07:01:11;8.40;72.70
20091;DHT22;10205;49.678;6.560;2022-12-07T07:03:39;8.40;72.70
20091;DHT22;10205;49.678;6.560;2022-12-07T07:06:07;8.40;73.60
20091;DHT22;10205;49.678;6.560;2022-12-07T07:08:35;8.40;72.80
20091;DHT22;10205;49.678;6.560;2022-12-07T07:11:03;8.40;73.60
20091;DHT22;10205;49.678;6.560;2022-12-07T07:13:31;8.40;72.70
20091;DHT22;10205;49.678;6.560;2022-12-07T07:15:58;8.40;72.60
20091;DHT22;10205;49.678;6.560;2022-12-07T07:18:28;8.40;72.60
20091;DHT22;10205;49.678;6.560;2022-12-07T07:20:56;8.40;72.60
20091;DHT22;10205;49.678;6.560;2022-12-07T07:23:23;8.40;72.60
20091;DHT22;10205;49.678;6.560;2022-12-07T07:25:51;8.40;72.60
20091;DHT22;10205;49.678;6.560;2022-12-07T07:28:18;8.40;72.60
20091;DHT22;10205;49.678;6.560;2022-12-07T07:30:45;8.40;72.60
20091;DHT22;10205;49.678;6.560;2022-12-07T07:33:12;8.40;72.70
20091;DHT22;10205;49.678;6.560;2022-12-07T07:35:42;8.40;72.70
20091;DHT22;10205;49.678;6.560;2022-12-07T07:38:09;8.40;72.70
20091;DHT22;10205;49.678;6.560;2022-12-07T07:40:36;8.40;72.70
20091;DHT22;10205;49.678;6.560;2022-12-07T07:43:04;8.40;72.80
20091;DHT22;10205;49.678;6.560;2022-12-07T07:45:33;8.40;72.70
20091;DHT22;10205;49.678;6.560;2022-12-07T07:48:00;8.40;72.70
20091;DHT22;10205;49.678;6.560;2022-12-07T07:50:27;8.40;72.70
20091;DHT22;10205;49.678;6.560;2022-12-07T07:52:56;8.40;72.70
20091;DHT22;10205;49.678;6.560;2022-12-07T07:55:24;8.40;72.70
20091;DHT22;10205;49.678;6.560;2022-12-07T07:57:51;8.40;72.80
20091;DHT22;10205;49.678;6.560;2022-12-07T08:00:19;8.40;72.80
20091;DHT22;10205;49.678;6.560;2022-12-07T08:02:46;8.40;72.90
20091;DHT22;10205;49.678;6.560;2022-12-07T08:05:14;8.40;72.80
20091;DHT22;10205;49.678;6.560;2022-12-07T08:07:41;8.40;72.90
20091;DHT22;10205;49.678;6.560;2022-12-07T08:10:12;8.40;72.70
20091;DHT22;10205;49.678;6.560;2022-12-07T08:12:41;8.40;72.70
20091;DHT22;10205;49.678;6.560;2022-12-07T08:15:25;8.40;72.70
20091;DHT22;10205;49.678;6.560;2022-12-07T08:17:53;8.50;72.70
20091;DHT22;10205;49.678;6.560;2022-12-07T08:20:20;8.50;72.70
20091;DHT22;10205;49.678;6.560;2022-12-07T08:22:47;8.50;72.70
20091;DHT22;10205;49.678;6.560;2022-12-07T08:25:16;8.40;72.70
20091;DHT22;10205;49.678;6.560;2022-12-07T08:27:44;8.40;72.70
20091;DHT22;10205;49.678;6.560;2022-12-07T08:30:11;8.50;72.80
20091;DHT22;10205;49.678;6.560;2022-12-07T08:32:38;8.50;72.80
20091;DHT22;10205;49.678;6.560;2022-12-07T08:35:07;8.50;72.90
20091;DHT22;10205;49.678;6.560;2022-12-07T08:37:35;8.50;72.90
20091;DHT22;10205;49.678;6.560;2022-12-07T08:40:03;8.50;72.80
20091;DHT22;10205;49.678;6.560;2022-12-07T08:42:34;8.50;72.80
20091;DHT22;10205;49.678;6.560;2022-12-07T08:45:06;8.50;72.80
20091;DHT22;10205;49.678;6.560;2022-12-07T08:47:35;8.50;72.90
20091;DHT22;10205;49.678;6.560;2022-12-07T08:50:07;8.50;72.90
20091;DHT22;10205;49.678;6.560;2022-12-07T08:52:37;8.50;73.00
20091;DHT22;10205;49.678;6.560;2022-12-07T08:55:08;8.50;72.80
20091;DHT22;10205;49.678;6.560;2022-12-07T08:57:38;8.50;72.90
20091;DHT22;10205;49.678;6.560;2022-12-07T09:00:07;8.50;73.20
20091;DHT22;10205;49.678;6.560;2022-12-07T09:02:35;8.50;72.90
20091;DHT22;10205;49.678;6.560;2022-12-07T09:05:02;8.50;73.80
20091;DHT22;10205;49.678;6.560;2022-12-07T09:07:31;8.50;73.00
20091;DHT22;10205;49.678;6.560;2022-12-07T09:10:00;8.50;73.00
20091;DHT22;10205;49.678;6.560;2022-12-07T09:12:27;8.50;73.00
20091;DHT22;10205;49.678;6.560;2022-12-07T09:14:55;8.50;73.00
20091;DHT22;10205;49.678;6.560;2022-12-07T09:17:22;8.60;73.10
20091;DHT22;10205;49.678;6.560;2022-12-07T09:19:50;8.50;73.00
20091;DHT22;10205;49.678;6.560;2022-12-07T09:22:17;8.50;73.00
20091;DHT22;10205;49.678;6.560;2022-12-07T09:24:44;8.60;73.00
20091;DHT22;10205;49.678;6.560;2022-12-07T09:27:12;8.60;73.00
20091;DHT22;10205;49.678;6.560;2022-12-07T09:29:39;8.60;73.00
20091;DHT22;10205;49.678;6.560;2022-12-07T09:32:08;8.60;73.00
20091;DHT22;10205;49.678;6.560;2022-12-07T09:34:35;8.60;73.10
20091;DHT22;10205;49.678;6.560;2022-12-07T09:37:02;8.60;73.10
20091;DHT22;10205;49.678;6.560;2022-12-07T09:39:31;8.60;73.10
20091;DHT22;10205;49.678;6.560;2022-12-07T09:41:59;8.70;73.10
20091;DHT22;10205;49.678;6.560;2022-12-07T09:44:31;8.70;73.10
20091;DHT22;10205;49.678;6.560;2022-12-07T09:46:59;8.70;73.10
20091;DHT22;10205;49.678;6.560;2022-12-07T09:49:29;8.70;73.00
20091;DHT22;10205;49.678;6.560;2022-12-07T09:52:03;8.70;72.90
20091;DHT22;10205;49.678;6.560;2022-12-07T09:54:47;8.70;73.00
20091;DHT22;10205;49.678;6.560;2022-12-07T09:57:20;8.70;72.90
20091;DHT22;10205;49.678;6.560;2022-12-07T09:59:54;8.70;72.90
20091;DHT22;10205;49.678;6.560;2022-12-07T10:02:28;8.70;72.90
20091;DHT22;10205;49.678;6.560;2022-12-07T10:05:05;8.70;72.80
20091;DHT22;10205;49.678;6.560;2022-12-07T10:07:37;8.70;72.80
20091;DHT22;10205;49.678;6.560;2022-12-07T10:10:05;8.80;72.90
20091;DHT22;10205;49.678;6.560;2022-12-07T10:12:53;8.80;72.90
20091;DHT22;10205;49.678;6.560;2022-12-07T10:15:23;8.70;73.60
20091;DHT22;10205;49.678;6.560;2022-12-07T10:17:51;8.70;72.80
20091;DHT22;10205;49.678;6.560;2022-12-07T10:20:25;8.80;73.00
20091;DHT22;10205;49.678;6.560;2022-12-07T10:22:59;8.80;73.10
20091;DHT22;10205;49.678;6.560;2022-12-07T10:25:31;8.80;73.10
20091;DHT22;10205;49.678;6.560;2022-12-07T10:28:17;8.80;73.00
20091;DHT22;10205;49.678;6.560;2022-12-07T10:30:51;8.90;73.00
20091;DHT22;10205;49.678;6.560;2022-12-07T10:33:36;8.90;73.00
20091;DHT22;10205;49.678;6.560;2022-12-07T10:36:22;8.90;73.00
20091;DHT22;10205;49.678;6.560;2022-12-07T10:38:53;9.00;72.90
20091;DHT22;10205;49.678;6.560;2022-12-07T10:41:26;9.00;72.80
20091;DHT22;10205;49.678;6.560;2022-12-07T10:43:55;9.00;72.60
20091;DHT22;10205;49.678;6.560;2022-12-07T10:46:46;9.10;72.30
20091;DHT22;10205;49.678;6.560;2022-12-07T10:52:53;9.10;71.90
20091;DHT22;10205;49.678;6.560;2022-12-07T10:55:55;9.20;71.40
20091;DHT22;10205;49.678;6.560;2022-12-07T10:58:44;9.20;71.30
20091;DHT22;10205;49.678;6.560;2022-12-07T11:01:24;9.20;71.10
20091;DHT22;10205;49.678;6.560;2022-12-07T11:04:21;9.20;70.90
20091;DHT22;10205;49.678;6.560;2022-12-07T11:07:00;9.20;70.80
20091;DHT22;10205;49.678;6.560;2022-12-07T11:10:00;9.20;70.60
20091;DHT22;10205;49.678;6.560;2022-12-07T11:12:50;9.20;70.50
20091;DHT22;10205;49.678;6.560;2022-12-07T11:15:38;9.20;70.80
20091;DHT22;10205;49.678;6.560;2022-12-07T11:18:19;9.30;70.90
20091;DHT22;10205;49.678;6.560;2022-12-07T11:20:54;9.30;71.10
20091;DHT22;10205;49.678;6.560;2022-12-07T11:23:34;9.30;71.10
20091;DHT22;10205;49.678;6.560;2022-12-07T11:26:21;9.30;71.00
20091;DHT22;10205;49.678;6.560;2022-12-07T11:29:17;9.30;70.80
20091;DHT22;10205;49.678;6.560;2022-12-07T11:32:03;9.30;70.70
20091;DHT22;10205;49.678;6.560;2022-12-07T11:34:47;9.30;70.80
20091;DHT22;10205;49.678;6.560;2022-12-07T11:37:28;9.40;70.70
20091;DHT22;10205;49.678;6.560;2022-12-07T11:40:02;9.40;70.50
20091;DHT22;10205;49.678;6.560;2022-12-07T11:42:38;9.40;70.60
20091;DHT22;10205;49.678;6.560;2022-12-07T11:45:13;9.40;70.40
20091;DHT22;10205;49.678;6.560;2022-12-07T11:47:47;9.40;70.50
20091;DHT22;10205;49.678;6.560;2022-12-07T11:50:27;9.40;70.30
20091;DHT22;10205;49.678;6.560;2022-12-07T11:53:02;9.40;70.20
20091;DHT22;10205;49.678;6.560;2022-12-07T11:55:43;9.50;70.50
20091;DHT22;10205;49.678;6.560;2022-12-07T11:58:28;9.50;70.20
20091;DHT22;10205;49.678;6.560;2022-12-07T12:01:14;9.50;70.10
20091;DHT22;10205;49.678;6.560;2022-12-07T12:03:51;9.50;69.90
20091;DHT22;10205;49.678;6.560;2022-12-07T12:06:20;9.50;70.00
20091;DHT22;10205;49.678;6.560;2022-12-07T12:08:51;9.60;70.20
20091;DHT22;10205;49.678;6.560;2022-12-07T12:11:38;9.60;69.40
20091;DHT22;10205;49.678;6.560;2022-12-07T12:20:22;9.60;69.40
20091;DHT22;10205;49.678;6.560;2022-12-07T12:22:55;9.70;69.80
20091;DHT22;10205;49.678;6.560;2022-12-07T12:25:29;9.70;69.90
20091;DHT22;10205;49.678;6.560;2022-12-07T12:28:03;9.70;69.40
20091;DHT22;10205;49.678;6.560;2022-12-07T12:30:35;9.70;69.60
20091;DHT22;10205;49.678;6.560;2022-12-07T12:33:12;9.70;69.40
20091;DHT22;10205;49.678;6.560;2022-12-07T12:35:42;9.70;69.40
20091;DHT22;10205;49.678;6.560;2022-12-07T12:38:32;9.70;69.40
20091;DHT22;10205;49.678;6.560;2022-12-07T12:41:02;9.70;68.40
20091;DHT22;10205;49.678;6.560;2022-12-07T12:43:48;9.80;69.20
20091;DHT22;10205;49.678;6.560;2022-12-07T12:46:38;9.70;69.00
20091;DHT22;10205;49.678;6.560;2022-12-07T12:49:43;9.80;68.90
20091;DHT22;10205;49.678;6.560;2022-12-07T12:52:50;9.80;67.70
20091;DHT22;10205;49.678;6.560;2022-12-07T12:58:39;9.80;68.40
20091;DHT22;10205;49.678;6.560;2022-12-07T13:07:55;9.80;67.90
20091;DHT22;10205;49.678;6.560;2022-12-07T13:10:37;9.80;68.30
20091;DHT22;10205;49.678;6.560;2022-12-07T13:13:30;9.80;68.30
20091;DHT22;10205;49.678;6.560;2022-12-07T13:16:38;9.80;68.40
20091;DHT22;10205;49.678;6.560;2022-12-07T13:22:42;9.80;68.30
20091;DHT22;10205;49.678;6.560;2022-12-07T13:25:24;9.80;68.20
20091;DHT22;10205;49.678;6.560;2022-12-07T13:28:01;9.80;68.20
20091;DHT22;10205;49.678;6.560;2022-12-07T13:30:43;9.80;68.20
20091;DHT22;10205;49.678;6.560;2022-12-07T13:33:15;9.90;68.30
20091;DHT22;10205;49.678;6.560;2022-12-07T13:35:46;9.80;68.40
20091;DHT22;10205;49.678;6.560;2022-12-07T13:38:22;9.80;68.70
20091;DHT22;10205;49.678;6.560;2022-12-07T13:41:13;9.90;68.80
20091;DHT22;10205;49.678;6.560;2022-12-07T13:43:43;9.90;68.70
20091;DHT22;10205;49.678;6.560;2022-12-07T13:46:12;9.90;68.40
20091;DHT22;10205;49.678;6.560;2022-12-07T13:48:45;9.90;68.20
20091;DHT22;10205;49.678;6.560;2022-12-07T13:51:21;9.90;68.40
20091;DHT22;10205;49.678;6.560;2022-12-07T13:53:51;9.90;68.00
20091;DHT22;10205;49.678;6.560;2022-12-07T13:56:22;9.90;68.40
20091;DHT22;10205;49.678;6.560;2022-12-07T13:58:55;9.90;68.70
20091;DHT22;10205;49.678;6.560;2022-12-07T14:01:22;9.90;68.80
20091;DHT22;10205;49.678;6.560;2022-12-07T14:03:51;9.90;68.80
20091;DHT22;10205;49.678;6.560;2022-12-07T14:06:25;9.90;68.80
20091;DHT22;10205;49.678;6.560;2022-12-07T14:09:07;10.00;68.80
20091;DHT22;10205;49.678;6.560;2022-12-07T14:11:35;10.00;68.70
20091;DHT22;10205;49.678;6.560;2022-12-07T14:14:15;10.00;68.80
20091;DHT22;10205;49.678;6.560;2022-12-07T14:16:59;10.00;68.20
20091;DHT22;10205;49.678;6.560;2022-12-07T14:19:44;10.00;68.10
20091;DHT22;10205;49.678;6.560;2022-12-07T14:22:23;10.00;68.30
20091;DHT22;10205;49.678;6.560;2022-12-07T14:24:59;10.00;68.00
20091;DHT22;10205;49.678;6.560;2022-12-07T14:27:31;10.00;68.00
20091;DHT22;10205;49.678;6.560;2022-12-07T14:30:02;10.00;68.30
20091;DHT22;10205;49.678;6.560;2022-12-07T14:32:32;10.00;68.40
20091;DHT22;10205;49.678;6.560;2022-12-07T14:35:08;10.00;68.50
20091;DHT22;10205;49.678;6.560;2022-12-07T14:37:40;10.00;68.00
20091;DHT22;10205;49.678;6.560;2022-12-07T14:40:12;10.00;68.00
20091;DHT22;10205;49.678;6.560;2022-12-07T14:42:42;10.00;68.70
20091;DHT22;10205;49.678;6.560;2022-12-07T14:45:15;10.00;69.00
20091;DHT22;10205;49.678;6.560;2022-12-07T14:47:45;10.00;69.10
20091;DHT22;10205;49.678;6.560;2022-12-07T14:50:14;10.00;69.10
20091;DHT22;10205;49.678;6.560;2022-12-07T14:52:48;10.00;68.60
20091;DHT22;10205;49.678;6.560;2022-12-07T14:55:23;10.00;68.80
20091;DHT22;10205;49.678;6.560;2022-12-07T14:57:52;10.00;68.60
20091;DHT22;10205;49.678;6.560;2022-12-07T15:00:21;10.00;68.80
20091;DHT22;10205;49.678;6.560;2022-12-07T15:02:49;10.00;68.70
20091;DHT22;10205;49.678;6.560;2022-12-07T15:05:18;10.00;69.00
20091;DHT22;10205;49.678;6.560;2022-12-07T15:07:47;10.00;69.00
20091;DHT22;10205;49.678;6.560;2022-12-07T15:10:18;10.00;68.90
20091;DHT22;10205;49.678;6.560;2022-12-07T15:12:47;10.00;68.40
20091;DHT22;10205;49.678;6.560;2022-12-07T15:15:14;10.00;68.60
20091;DHT22;10205;49.678;6.560;2022-12-07T15:17:42;10.00;68.40
20091;DHT22;10205;49.678;6.560;2022-12-07T15:20:12;10.00;68.50
20091;DHT22;10205;49.678;6.560;2022-12-07T15:22:42;10.00;68.60
20091;DHT22;10205;49.678;6.560;2022-12-07T15:25:13;10.00;68.40
20091;DHT22;10205;49.678;6.560;2022-12-07T15:27:41;10.00;68.40
20091;DHT22;10205;49.678;6.560;2022-12-07T15:30:08;9.90;68.30
20091;DHT22;10205;49.678;6.560;2022-12-07T15:32:35;10.00;68.40
20091;DHT22;10205;49.678;6.560;2022-12-07T15:35:03;9.90;68.70
20091;DHT22;10205;49.678;6.560;2022-12-07T15:37:30;9.90;68.60
20091;DHT22;10205;49.678;6.560;2022-12-07T15:39:57;9.90;68.60
20091;DHT22;10205;49.678;6.560;2022-12-07T15:42:26;9.90;68.80
20091;DHT22;10205;49.678;6.560;2022-12-07T15:44:53;9.90;68.80
20091;DHT22;10205;49.678;6.560;2022-12-07T15:47:31;9.90;69.20
20091;DHT22;10205;49.678;6.560;2022-12-07T15:49:59;9.90;69.00
20091;DHT22;10205;49.678;6.560;2022-12-07T15:52:26;9.90;68.90
20091;DHT22;10205;49.678;6.560;2022-12-07T15:54:54;9.90;68.70
20091;DHT22;10205;49.678;6.560;2022-12-07T15:57:21;9.90;68.70
20091;DHT22;10205;49.678;6.560;2022-12-07T15:59:49;9.90;68.60
20091;DHT22;10205;49.678;6.560;2022-12-07T16:02:17;9.90;68.70
20091;DHT22;10205;49.678;6.560;2022-12-07T16:04:44;9.90;69.00
20091;DHT22;10205;49.678;6.560;2022-12-07T16:07:11;9.90;69.30
20091;DHT22;10205;49.678;6.560;2022-12-07T16:09:41;9.90;69.60
20091;DHT22;10205;49.678;6.560;2022-12-07T16:12:08;9.90;69.90
20091;DHT22;10205;49.678;6.560;2022-12-07T16:14:36;9.90;69.40
20091;DHT22;10205;49.678;6.560;2022-12-07T16:17:05;9.90;69.40
20091;DHT22;10205;49.678;6.560;2022-12-07T16:19:33;9.80;69.10
20091;DHT22;10205;49.678;6.560;2022-12-07T16:22:01;9.80;68.90
20091;DHT22;10205;49.678;6.560;2022-12-07T16:24:30;9.80;68.80
20091;DHT22;10205;49.678;6.560;2022-12-07T16:26:57;9.80;69.10
20091;DHT22;10205;49.678;6.560;2022-12-07T16:29:24;9.80;69.10
20091;DHT22;10205;49.678;6.560;2022-12-07T16:31:51;9.80;69.00
20091;DHT22;10205;49.678;6.560;2022-12-07T16:34:20;9.80;69.10
20091;DHT22;10205;49.678;6.560;2022-12-07T16:36:47;9.70;68.90
20091;DHT22;10205;49.678;6.560;2022-12-07T16:39:14;9.70;68.80
20091;DHT22;10205;49.678;6.560;2022-12-07T16:41:41;9.70;68.90
20091;DHT22;10205;49.678;6.560;2022-12-07T16:44:11;9.70;69.00